sensor_id;sensor_type;location;lat;lon;timestamp;pressure;altitude;pressure_sealevel;temperature;humidity
55914;BME280;58179;48.776;9.124;2023-05-03T00:01:10;98125.06;;;10.94;100.00
55914;BME280;58179;48.776;9.124;2023-05-03T00:03:36;98123.47;;;10.93;100.00
55914;BME280;58179;48.776;9.124;2023-05-03T00:06:09;98128.75;;;10.93;100.00
55914;BME280;58179;48.776;9.124;2023-05-03T00:08:36;98128.75;;;10.93;100.00
55914;BME280;58179;48.776;9.124;2023-05-03T00:11:02;98129.34;;;10.95;100.00
55914;BME280;58179;48.776;9.124;2023-05-03T00:13:27;98126.69;;;10.95;100.00
55914;BME280;58179;48.776;9.124;2023-05-03T00:15:53;98128.53;;;10.95;100.00
55914;BME280;58179;48.776;9.124;2023-05-03T00:18:22;98127.16;;;10.92;100.00
55914;BME280;58179;48.776;9.124;2023-05-03T00:20:48;98120.50;;;10.90;100.00
55914;BME280;58179;48.776;9.124;2023-05-03T00:23:16;98129.94;;;10.85;100.00
55914;BME280;58179;48.776;9.124;2023-05-03T00:25:41;98131.47;;;10.81;100.00
55914;BME280;58179;48.776;9.124;2023-05-03T00:28:07;98130.88;;;10.79;100.00
55914;BME280;58179;48.776;9.124;2023-05-03T00:30:33;98125.00;;;10.77;100.00
55914;BME280;58179;48.776;9.124;2023-05-03T00:32:59;98133.66;;;10.73;100.00
55914;BME280;58179;48.776;9.124;2023-05-03T00:35:28;98128.22;;;10.68;100.00
55914;BME280;58179;48.776;9.124;2023-05-03T00:37:54;98129.75;;;10.64;100.00
55914;BME280;58179;48.776;9.124;2023-05-03T00:40:20;98127.00;;;10.59;100.00
55914;BME280;58179;48.776;9.124;2023-05-03T00:42:46;98125.25;;;10.53;100.00
55914;BME280;58179;48.776;9.124;2023-05-03T00:45:12;98123.91;;;10.50;100.00
55914;BME280;58179;48.776;9.124;2023-05-03T00:47:38;98116.09;;;10.43;100.00
55914;BME280;58179;48.776;9.124;2023-05-03T00:50:06;98115.41;;;10.36;100.00
55914;BME280;58179;48.776;9.124;2023-05-03T00:52:33;98115.28;;;10.31;100.00
55914;BME280;58179;48.776;9.124;2023-05-03T00:55:00;98110.69;;;10.27;100.00
55914;BME280;58179;48.776;9.124;2023-05-03T00:57:26;98105.03;;;10.23;100.00
55914;BME280;58179;48.776;9.124;2023-05-03T00:59:53;98103.53;;;10.16;100.00
55914;BME280;58179;48.776;9.124;2023-05-03T01:02:20;98109.28;;;10.13;100.00
55914;BME280;58179;48.776;9.124;2023-05-03T01:04:46;98106.50;;;10.07;100.00
55914;BME280;58179;48.776;9.124;2023-05-03T01:07:23;98109.03;;;10.02;100.00
55914;BME280;58179;48.776;9.124;2023-05-03T01:10:02;98113.31;;;10.03;100.00
55914;BME280;58179;48.776;9.124;2023-05-03T01:12:40;98109.84;;;9.91;100.00
55914;BME280;58179;48.776;9.124;2023-05-03T01:15:15;98105.69;;;9.72;100.00
55914;BME280;58179;48.776;9.124;2023-05-03T01:17:50;98107.19;;;9.68;100.00
55914;BME280;58179;48.776;9.124;2023-05-03T01:20:25;98103.03;;;9.60;100.00
55914;BME280;58179;48.776;9.124;2023-05-03T01:23:04;98108.97;;;9.44;100.00
55914;BME280;58179;48.776;9.124;2023-05-03T01:25:35;98110.78;;;9.32;100.00
55914;BME280;58179;48.776;9.124;2023-05-03T01:28:01;98101.78;;;9.33;100.00
55914;BME280;58179;48.776;9.124;2023-05-03T01:30:29;98094.06;;;9.20;100.00
55914;BME280;58179;48.776;9.124;2023-05-03T01:33:04;98093.25;;;9.19;100.00
55914;BME280;58179;48.776;9.124;2023-05-03T01:35:41;98088.66;;;9.15;100.00
55914;BME280;58179;48.776;9.124;2023-05-03T01:38:09;98090.69;;;9.13;100.00
55914;BME280;58179;48.776;9.124;2023-05-03T01:40:44;98086.66;;;9.10;100.00
55914;BME280;58179;48.776;9.124;2023-05-03T01:43:14;98094.13;;;9.02;100.00
55914;BME280;58179;48.776;9.124;2023-05-03T01:45:41;98094.84;;;9.09;100.00
55914;BME280;58179;48.776;9.124;2023-05-03T01:48:13;98094.13;;;9.02;100.00
55914;BME280;58179;48.776;9.124;2023-05-03T01:50:39;98083.06;;;8.93;100.00
55914;BME280;58179;48.776;9.124;2023-05-03T01:53:05;98084.66;;;8.94;100.00
55914;BME280;58179;48.776;9.124;2023-05-03T01:55:31;98087.69;;;8.79;100.00
55914;BME280;58179;48.776;9.124;2023-05-03T01:57:58;98086.31;;;8.77;100.00
55914;BME280;58179;48.776;9.124;2023-05-03T02:00:24;98083.78;;;8.82;100.00
55914;BME280;58179;48.776;9.124;2023-05-03T02:02:50;98091.50;;;8.83;100.00
55914;BME280;58179;48.776;9.124;2023-05-03T02:05:16;98081.75;;;8.66;100.00
55914;BME280;58179;48.776;9.124;2023-05-03T02:07:42;98083.59;;;8.65;100.00
55914;BME280;58179;48.776;9.124;2023-05-03T02:10:08;98086.47;;;8.64;100.00
55914;BME280;58179;48.776;9.124;2023-05-03T02:12:39;98093.78;;;8.62;100.00
55914;BME280;58179;48.776;9.124;2023-05-03T02:15:08;98092.03;;;8.56;100.00
55914;BME280;58179;48.776;9.124;2023-05-03T02:17:34;98089.53;;;8.61;100.00
55914;BME280;58179;48.776;9.124;2023-05-03T02:20:00;98086.53;;;8.57;100.00
55914;BME280;58179;48.776;9.124;2023-05-03T02:22:26;98088.59;;;8.55;100.00
55914;BME280;58179;48.776;9.124;2023-05-03T02:24:52;98095.19;;;8.46;100.00
55914;BME280;58179;48.776;9.124;2023-05-03T02:27:18;98090.19;;;8.38;100.00
55914;BME280;58179;48.776;9.124;2023-05-03T02:29:44;98081.13;;;8.34;100.00
55914;BME280;58179;48.776;9.124;2023-05-03T02:32:11;98086.81;;;8.31;100.00
55914;BME280;58179;48.776;9.124;2023-05-03T02:34:38;98083.69;;;8.40;100.00
55914;BME280;58179;48.776;9.124;2023-05-03T02:37:03;98087.56;;;8.38;100.00
55914;BME280;58179;48.776;9.124;2023-05-03T02:39:29;98084.59;;;8.28;100.00
55914;BME280;58179;48.776;9.124;2023-05-03T02:41:56;98078.75;;;8.26;100.00
55914;BME280;58179;48.776;9.124;2023-05-03T02:44:21;98078.56;;;8.21;100.00
55914;BME280;58179;48.776;9.124;2023-05-03T02:46:47;98077.63;;;8.15;100.00
55914;BME280;58179;48.776;9.124;2023-05-03T02:49:15;98082.22;;;8.20;100.00
55914;BME280;58179;48.776;9.124;2023-05-03T02:51:40;98081.72;;;8.11;100.00
55914;BME280;58179;48.776;9.124;2023-05-03T02:54:06;98079.91;;;8.11;100.00
55914;BME280;58179;48.776;9.124;2023-05-03T02:56:32;98087.44;;;8.08;100.00
55914;BME280;58179;48.776;9.124;2023-05-03T02:58:58;98076.94;;;8.01;100.00
55914;BME280;58179;48.776;9.124;2023-05-03T03:01:24;98082.56;;;8.05;100.00
55914;BME280;58179;48.776;9.124;2023-05-03T03:03:50;98083.25;;;8.00;100.00
55914;BME280;58179;48.776;9.124;2023-05-03T03:06:17;98077.22;;;7.93;100.00
55914;BME280;58179;48.776;9.124;2023-05-03T03:08:43;98082.00;;;8.03;100.00
55914;BME280;58179;48.776;9.124;2023-05-03T03:11:09;98081.53;;;7.88;100.00
55914;BME280;58179;48.776;9.124;2023-05-03T03:13:35;98081.09;;;7.91;100.00
55914;BME280;58179;48.776;9.124;2023-05-03T03:16:05;98080.00;;;7.80;100.00
55914;BME280;58179;48.776;9.124;2023-05-03T03:18:31;98076.69;;;7.85;100.00
55914;BME280;58179;48.776;9.124;2023-05-03T03:20:57;98079.38;;;7.78;100.00
55914;BME280;58179;48.776;9.124;2023-05-03T03:23:24;98077.97;;;7.75;100.00
55914;BME280;58179;48.776;9.124;2023-05-03T03:25:50;98082.22;;;7.76;100.00
55914;BME280;58179;48.776;9.124;2023-05-03T03:28:16;98083.91;;;7.71;100.00
55914;BME280;58179;48.776;9.124;2023-05-03T03:30:42;98078.25;;;7.67;100.00
55914;BME280;58179;48.776;9.124;2023-05-03T03:33:07;98080.06;;;7.73;100.00
55914;BME280;58179;48.776;9.124;2023-05-03T03:35:33;98078.03;;;7.69;100.00
55914;BME280;58179;48.776;9.124;2023-05-03T03:38:00;98079.19;;;7.80;100.00
55914;BME280;58179;48.776;9.124;2023-05-03T03:40:27;98087.56;;;7.70;100.00
55914;BME280;58179;48.776;9.124;2023-05-03T03:42:53;98086.88;;;7.56;100.00
55914;BME280;58179;48.776;9.124;2023-05-03T03:45:19;98090.91;;;7.59;100.00
55914;BME280;58179;48.776;9.124;2023-05-03T03:47:45;98089.34;;;7.51;100.00
55914;BME280;58179;48.776;9.124;2023-05-03T03:50:11;98096.44;;;7.51;100.00
55914;BME280;58179;48.776;9.124;2023-05-03T03:52:37;98094.00;;;7.49;100.00
55914;BME280;58179;48.776;9.124;2023-05-03T03:55:04;98099.06;;;7.51;100.00
55914;BME280;58179;48.776;9.124;2023-05-03T03:57:32;98102.28;;;7.53;100.00
55914;BME280;58179;48.776;9.124;2023-05-03T03:59:58;98104.75;;;7.48;100.00
55914;BME280;58179;48.776;9.124;2023-05-03T04:02:24;98102.88;;;7.55;100.00
55914;BME280;58179;48.776;9.124;2023-05-03T04:04:50;98102.28;;;7.53;100.00
55914;BME280;58179;48.776;9.124;2023-05-03T04:07:16;98100.25;;;7.55;100.00
55914;BME280;58179;48.776;9.124;2023-05-03T04:09:42;98098.38;;;7.62;100.00
55914;BME280;58179;48.776;9.124;2023-05-03T04:12:09;98098.69;;;7.72;100.00
55914;BME280;58179;48.776;9.124;2023-05-03T04:14:36;98107.22;;;7.74;100.00
55914;BME280;58179;48.776;9.124;2023-05-03T04:17:02;98110.00;;;7.79;100.00
55914;BME280;58179;48.776;9.124;2023-05-03T04:19:29;98116.81;;;7.87;100.00
55914;BME280;58179;48.776;9.124;2023-05-03T04:21:55;98115.97;;;7.93;100.00
55914;BME280;58179;48.776;9.124;2023-05-03T04:24:21;98125.22;;;8.02;100.00
55914;BME280;58179;48.776;9.124;2023-05-03T04:26:47;98125.50;;;8.12;100.00
55914;BME280;58179;48.776;9.124;2023-05-03T04:29:13;98124.22;;;8.21;100.00
55914;BME280;58179;48.776;9.124;2023-05-03T04:31:40;98129.03;;;8.31;100.00
55914;BME280;58179;48.776;9.124;2023-05-03T04:34:06;98131.19;;;8.40;100.00
55914;BME280;58179;48.776;9.124;2023-05-03T04:36:32;98132.47;;;8.49;100.00
55914;BME280;58179;48.776;9.124;2023-05-03T04:38:58;98128.75;;;8.57;100.00
55914;BME280;58179;48.776;9.124;2023-05-03T04:41:24;98133.50;;;8.67;100.00
55914;BME280;58179;48.776;9.124;2023-05-03T04:43:50;98132.63;;;8.73;100.00
55914;BME280;58179;48.776;9.124;2023-05-03T04:46:16;98129.47;;;8.82;100.00
55914;BME280;58179;48.776;9.124;2023-05-03T04:48:44;98135.69;;;8.88;100.00
55914;BME280;58179;48.776;9.124;2023-05-03T04:51:10;98134.84;;;8.94;100.00
55914;BME280;58179;48.776;9.124;2023-05-03T04:53:36;98133.13;;;9.00;100.00
55914;BME280;58179;48.776;9.124;2023-05-03T04:56:02;98142.00;;;9.05;100.00
55914;BME280;58179;48.776;9.124;2023-05-03T04:58:28;98146.59;;;9.10;100.00
55914;BME280;58179;48.776;9.124;2023-05-03T05:00:54;98150.41;;;9.14;100.00
55914;BME280;58179;48.776;9.124;2023-05-03T05:03:20;98147.34;;;9.17;100.00
55914;BME280;58179;48.776;9.124;2023-05-03T05:05:47;98134.69;;;9.19;100.00
55914;BME280;58179;48.776;9.124;2023-05-03T05:08:13;98144.84;;;9.22;100.00
55914;BME280;58179;48.776;9.124;2023-05-03T05:10:40;98148.28;;;9.22;100.00
55914;BME280;58179;48.776;9.124;2023-05-03T05:13:06;98145.78;;;9.27;100.00
55914;BME280;58179;48.776;9.124;2023-05-03T05:15:32;98144.31;;;9.31;100.00
55914;BME280;58179;48.776;9.124;2023-05-03T05:17:58;98139.97;;;9.37;100.00
55914;BME280;58179;48.776;9.124;2023-05-03T05:20:24;98143.31;;;9.44;100.00
55914;BME280;58179;48.776;9.124;2023-05-03T05:22:51;98142.63;;;9.49;100.00
55914;BME280;58179;48.776;9.124;2023-05-03T05:25:17;98141.16;;;9.53;100.00
55914;BME280;58179;48.776;9.124;2023-05-03T05:27:43;98139.44;;;9.58;100.00
55914;BME280;58179;48.776;9.124;2023-05-03T05:30:10;98141.97;;;9.65;100.00
55914;BME280;58179;48.776;9.124;2023-05-03T05:32:36;98145.56;;;9.70;100.00
55914;BME280;58179;48.776;9.124;2023-05-03T05:35:02;98151.22;;;9.74;100.00
55914;BME280;58179;48.776;9.124;2023-05-03T05:37:28;98147.88;;;9.79;100.00
55914;BME280;58179;48.776;9.124;2023-05-03T05:39:55;98141.91;;;9.83;100.00
55914;BME280;58179;48.776;9.124;2023-05-03T05:42:21;98145.38;;;9.84;100.00
55914;BME280;58179;48.776;9.124;2023-05-03T05:44:47;98149.63;;;9.85;100.00
55914;BME280;58179;48.776;9.124;2023-05-03T05:47:15;98144.78;;;9.82;100.00
55914;BME280;58179;48.776;9.124;2023-05-03T05:49:41;98153.41;;;9.77;100.00
55914;BME280;58179;48.776;9.124;2023-05-03T05:52:07;98147.53;;;9.75;100.00
55914;BME280;58179;48.776;9.124;2023-05-03T05:54:32;98152.22;;;9.73;100.00
55914;BME280;58179;48.776;9.124;2023-05-03T05:57:00;98153.84;;;9.74;100.00
55914;BME280;58179;48.776;9.124;2023-05-03T05:59:26;98148.69;;;9.79;100.00
55914;BME280;58179;48.776;9.124;2023-05-03T06:01:52;98143.06;;;9.87;100.00
55914;BME280;58179;48.776;9.124;2023-05-03T06:04:17;98149.63;;;9.96;100.00
55914;BME280;58179;48.776;9.124;2023-05-03T06:06:43;98134.25;;;10.05;100.00
55914;BME280;58179;48.776;9.124;2023-05-03T06:09:09;98138.16;;;10.14;100.00
55914;BME280;58179;48.776;9.124;2023-05-03T06:11:35;98143.91;;;10.23;100.00
55914;BME280;58179;48.776;9.124;2023-05-03T06:14:04;98148.41;;;10.34;100.00
55914;BME280;58179;48.776;9.124;2023-05-03T06:16:34;98146.56;;;10.46;100.00
55914;BME280;58179;48.776;9.124;2023-05-03T06:19:01;98145.41;;;10.54;100.00
55914;BME280;58179;48.776;9.124;2023-05-03T06:21:27;98142.41;;;10.62;100.00
55914;BME280;58179;48.776;9.124;2023-05-03T06:23:54;98138.81;;;10.68;100.00
55914;BME280;58179;48.776;9.124;2023-05-03T06:26:20;98146.41;;;10.76;100.00
55914;BME280;58179;48.776;9.124;2023-05-03T06:28:46;98147.94;;;10.72;100.00
55914;BME280;58179;48.776;9.124;2023-05-03T06:31:13;98143.53;;;10.89;100.00
55914;BME280;58179;48.776;9.124;2023-05-03T06:33:39;98152.16;;;10.96;100.00
55914;BME280;58179;48.776;9.124;2023-05-03T06:36:06;98148.31;;;11.04;100.00
55914;BME280;58179;48.776;9.124;2023-05-03T06:38:32;98152.78;;;11.15;100.00
55914;BME280;58179;48.776;9.124;2023-05-03T06:40:58;98153.44;;;11.22;100.00
55914;BME280;58179;48.776;9.124;2023-05-03T06:43:24;98153.16;;;11.35;100.00
55914;BME280;58179;48.776;9.124;2023-05-03T06:45:51;98148.63;;;11.47;100.00
55914;BME280;58179;48.776;9.124;2023-05-03T06:48:21;98156.03;;;11.62;100.00
55914;BME280;58179;48.776;9.124;2023-05-03T06:50:47;98152.75;;;11.72;100.00
55914;BME280;58179;48.776;9.124;2023-05-03T06:53:13;98165.31;;;11.76;100.00
55914;BME280;58179;48.776;9.124;2023-05-03T06:55:41;98153.75;;;11.82;100.00
55914;BME280;58179;48.776;9.124;2023-05-03T06:58:07;98159.41;;;11.86;100.00
55914;BME280;58179;48.776;9.124;2023-05-03T07:00:36;98152.13;;;11.81;100.00
55914;BME280;58179;48.776;9.124;2023-05-03T07:03:04;98147.97;;;11.85;100.00
55914;BME280;58179;48.776;9.124;2023-05-03T07:05:31;98143.88;;;11.78;100.00
55914;BME280;58179;48.776;9.124;2023-05-03T07:07:57;98145.16;;;11.75;100.00
55914;BME280;58179;48.776;9.124;2023-05-03T07:10:23;98130.75;;;11.71;100.00
55914;BME280;58179;48.776;9.124;2023-05-03T07:12:50;98130.75;;;11.71;100.00
55914;BME280;58179;48.776;9.124;2023-05-03T07:15:16;98131.78;;;11.70;100.00
55914;BME280;58179;48.776;9.124;2023-05-03T07:17:42;98133.84;;;11.68;100.00
55914;BME280;58179;48.776;9.124;2023-05-03T07:20:08;98127.91;;;11.61;100.00
55914;BME280;58179;48.776;9.124;2023-05-03T07:22:36;98129.97;;;11.59;100.00
55914;BME280;58179;48.776;9.124;2023-05-03T07:25:01;98123.31;;;11.56;100.00
55914;BME280;58179;48.776;9.124;2023-05-03T07:27:27;98117.13;;;11.51;100.00
55914;BME280;58179;48.776;9.124;2023-05-03T07:29:53;98122.53;;;11.56;100.00
55914;BME280;58179;48.776;9.124;2023-05-03T07:32:19;98119.16;;;11.60;100.00
55914;BME280;58179;48.776;9.124;2023-05-03T07:34:46;98123.59;;;11.72;100.00
55914;BME280;58179;48.776;9.124;2023-05-03T07:37:12;98124.97;;;11.74;100.00
55914;BME280;58179;48.776;9.124;2023-05-03T07:39:40;98126.78;;;11.74;100.00
55914;BME280;58179;48.776;9.124;2023-05-03T07:42:06;98116.44;;;11.72;100.00
55914;BME280;58179;48.776;9.124;2023-05-03T07:44:33;98124.63;;;11.71;100.00
55914;BME280;58179;48.776;9.124;2023-05-03T07:47:00;98118.97;;;11.79;100.00
55914;BME280;58179;48.776;9.124;2023-05-03T07:49:26;98121.03;;;11.77;100.00
55914;BME280;58179;48.776;9.124;2023-05-03T07:51:52;98122.97;;;11.81;100.00
55914;BME280;58179;48.776;9.124;2023-05-03T07:54:18;98115.97;;;11.92;100.00
55914;BME280;58179;48.776;9.124;2023-05-03T07:56:46;98111.66;;;12.02;100.00
55914;BME280;58179;48.776;9.124;2023-05-03T07:59:12;98113.63;;;12.12;100.00
55914;BME280;58179;48.776;9.124;2023-05-03T08:01:38;98114.53;;;12.18;100.00
55914;BME280;58179;48.776;9.124;2023-05-03T08:04:04;98109.53;;;12.21;100.00
55914;BME280;58179;48.776;9.124;2023-05-03T08:06:30;98109.06;;;12.24;100.00
55914;BME280;58179;48.776;9.124;2023-05-03T08:08:56;98111.78;;;12.29;100.00
55914;BME280;58179;48.776;9.124;2023-05-03T08:11:22;98115.28;;;12.35;100.00
55914;BME280;58179;48.776;9.124;2023-05-03T08:13:49;98119.47;;;12.48;100.00
55914;BME280;58179;48.776;9.124;2023-05-03T08:16:15;98113.66;;;12.51;100.00
55914;BME280;58179;48.776;9.124;2023-05-03T08:18:41;98115.03;;;12.53;100.00
55914;BME280;58179;48.776;9.124;2023-05-03T08:21:07;98109.47;;;12.55;100.00
55914;BME280;58179;48.776;9.124;2023-05-03T08:23:34;98114.59;;;12.61;100.00
55914;BME280;58179;48.776;9.124;2023-05-03T08:26:00;98116.56;;;12.71;100.00
55914;BME280;58179;48.776;9.124;2023-05-03T08:28:28;98110.72;;;12.69;100.00
55914;BME280;58179;48.776;9.124;2023-05-03T08:30:57;98116.69;;;12.81;100.00
55914;BME280;58179;48.776;9.124;2023-05-03T08:33:22;98122.06;;;12.86;100.00
55914;BME280;58179;48.776;9.124;2023-05-03T08:35:49;98119.78;;;12.95;100.00
55914;BME280;58179;48.776;9.124;2023-05-03T08:38:15;98115.88;;;13.02;100.00
55914;BME280;58179;48.776;9.124;2023-05-03T08:40:41;98117.69;;;13.18;100.00
55914;BME280;58179;48.776;9.124;2023-05-03T08:43:08;98117.28;;;13.32;100.00
55914;BME280;58179;48.776;9.124;2023-05-03T08:45:34;98115.00;;;13.40;100.00
55914;BME280;58179;48.776;9.124;2023-05-03T08:48:02;98119.22;;;13.36;100.00
55914;BME280;58179;48.776;9.124;2023-05-03T08:50:29;98120.53;;;13.34;100.00
55914;BME280;58179;48.776;9.124;2023-05-03T08:52:56;98112.78;;;13.32;100.00
55914;BME280;58179;48.776;9.124;2023-05-03T08:55:23;98108.88;;;13.40;100.00
55914;BME280;58179;48.776;9.124;2023-05-03T08:57:49;98113.25;;;13.51;100.00
55914;BME280;58179;48.776;9.124;2023-05-03T09:00:16;98121.38;;;13.66;100.00
55914;BME280;58179;48.776;9.124;2023-05-03T09:02:44;98124.91;;;13.77;100.00
55914;BME280;58179;48.776;9.124;2023-05-03T09:05:32;98123.38;;;13.81;100.00
55914;BME280;58179;48.776;9.124;2023-05-03T09:08:03;98117.00;;;13.82;100.00
55914;BME280;58179;48.776;9.124;2023-05-03T09:10:30;98129.03;;;13.89;100.00
55914;BME280;58179;48.776;9.124;2023-05-03T09:13:00;98135.66;;;13.87;100.00
55914;BME280;58179;48.776;9.124;2023-05-03T09:15:27;98132.56;;;14.00;100.00
55914;BME280;58179;48.776;9.124;2023-05-03T09:18:14;98136.09;;;14.11;100.00
55914;BME280;58179;48.776;9.124;2023-05-03T09:20:43;98129.06;;;14.31;100.00
55914;BME280;58179;48.776;9.124;2023-05-03T09:23:16;98124.66;;;14.47;100.00
55914;BME280;58179;48.776;9.124;2023-05-03T09:25:46;98126.03;;;14.55;100.00
55914;BME280;58179;48.776;9.124;2023-05-03T09:28:12;98128.47;;;14.66;100.00
55914;BME280;58179;48.776;9.124;2023-05-03T09:30:39;98122.72;;;14.80;100.00
55914;BME280;58179;48.776;9.124;2023-05-03T09:33:04;98118.69;;;14.82;100.00
55914;BME280;58179;48.776;9.124;2023-05-03T09:35:30;98124.38;;;15.01;100.00
55914;BME280;58179;48.776;9.124;2023-05-03T09:38:01;98110.00;;;15.07;100.00
55914;BME280;58179;48.776;9.124;2023-05-03T09:40:27;98112.44;;;15.14;100.00
55914;BME280;58179;48.776;9.124;2023-05-03T09:43:10;98121.22;;;15.19;100.00
55914;BME280;58179;48.776;9.124;2023-05-03T09:45:37;98118.06;;;15.22;100.00
55914;BME280;58179;48.776;9.124;2023-05-03T09:48:05;98116.75;;;15.30;100.00
55914;BME280;58179;48.776;9.124;2023-05-03T09:50:32;98113.28;;;15.34;100.00
55914;BME280;58179;48.776;9.124;2023-05-03T09:53:03;98115.97;;;15.49;100.00
55914;BME280;58179;48.776;9.124;2023-05-03T09:55:34;98110.19;;;15.78;100.00
55914;BME280;58179;48.776;9.124;2023-05-03T09:58:02;98103.22;;;15.87;100.00
55914;BME280;58179;48.776;9.124;2023-05-03T10:00:36;98110.19;;;15.93;100.00
55914;BME280;58179;48.776;9.124;2023-05-03T10:03:07;98104.81;;;16.13;100.00
55914;BME280;58179;48.776;9.124;2023-05-03T10:05:43;98106.69;;;16.23;100.00
55914;BME280;58179;48.776;9.124;2023-05-03T10:08:18;98108.00;;;16.36;100.00
55914;BME280;58179;48.776;9.124;2023-05-03T10:10:49;98105.31;;;16.46;100.00
55914;BME280;58179;48.776;9.124;2023-05-03T10:13:20;98107.13;;;16.76;100.00
55914;BME280;58179;48.776;9.124;2023-05-03T10:15:48;98103.19;;;17.17;100.00
55914;BME280;58179;48.776;9.124;2023-05-03T10:18:19;98090.41;;;17.48;100.00
55914;BME280;58179;48.776;9.124;2023-05-03T10:20:52;98095.50;;;17.89;100.00
55914;BME280;58179;48.776;9.124;2023-05-03T10:23:21;98086.94;;;18.44;100.00
55914;BME280;58179;48.776;9.124;2023-05-03T10:26:12;98088.25;;;18.94;100.00
55914;BME280;58179;48.776;9.124;2023-05-03T10:28:39;98083.56;;;19.80;100.00
55914;BME280;58179;48.776;9.124;2023-05-03T10:31:04;98096.09;;;20.36;100.00
55914;BME280;58179;48.776;9.124;2023-05-03T10:33:32;98086.22;;;20.86;100.00
55914;BME280;58179;48.776;9.124;2023-05-03T10:36:04;98086.91;;;21.55;100.00
55914;BME280;58179;48.776;9.124;2023-05-03T10:38:32;98079.63;;;22.22;100.00
55914;BME280;58179;48.776;9.124;2023-05-03T10:40:59;98084.41;;;22.65;100.00
55914;BME280;58179;48.776;9.124;2023-05-03T10:43:48;98088.47;;;22.93;100.00
55914;BME280;58179;48.776;9.124;2023-05-03T10:46:33;98085.22;;;23.22;100.00
55914;BME280;58179;48.776;9.124;2023-05-03T10:49:17;98083.78;;;23.33;100.00
55914;BME280;58179;48.776;9.124;2023-05-03T10:51:43;98078.41;;;23.42;100.00
55914;BME280;58179;48.776;9.124;2023-05-03T10:54:11;98079.03;;;23.39;100.00
55914;BME280;58179;48.776;9.124;2023-05-03T10:56:47;98064.56;;;23.35;100.00
55914;BME280;58179;48.776;9.124;2023-05-03T10:59:14;98059.31;;;23.38;100.00
55914;BME280;58179;48.776;9.124;2023-05-03T11:01:40;98063.13;;;23.46;100.00
55914;BME280;58179;48.776;9.124;2023-05-03T11:04:10;98061.91;;;23.52;100.00
55914;BME280;58179;48.776;9.124;2023-05-03T11:06:39;98064.75;;;23.30;100.00
55914;BME280;58179;48.776;9.124;2023-05-03T11:09:08;98062.63;;;22.92;100.00
55914;BME280;58179;48.776;9.124;2023-05-03T11:11:38;98062.88;;;22.43;100.00
55914;BME280;58179;48.776;9.124;2023-05-03T11:14:05;98056.53;;;22.08;100.00
55914;BME280;58179;48.776;9.124;2023-05-03T11:16:31;98046.38;;;22.05;100.00
55914;BME280;58179;48.776;9.124;2023-05-03T11:18:57;98046.56;;;22.08;100.00
55914;BME280;58179;48.776;9.124;2023-05-03T11:21:24;98037.81;;;22.03;100.00
55914;BME280;58179;48.776;9.124;2023-05-03T11:23:50;98034.84;;;21.90;100.00
55914;BME280;58179;48.776;9.124;2023-05-03T11:26:16;98037.41;;;21.73;100.00
55914;BME280;58179;48.776;9.124;2023-05-03T11:28:44;98028.72;;;21.76;100.00
55914;BME280;58179;48.776;9.124;2023-05-03T11:31:11;98036.31;;;21.96;100.00
55914;BME280;58179;48.776;9.124;2023-05-03T11:33:39;98030.38;;;22.08;100.00
55914;BME280;58179;48.776;9.124;2023-05-03T11:36:07;98029.53;;;21.99;100.00
55914;BME280;58179;48.776;9.124;2023-05-03T11:38:37;98035.94;;;22.12;100.00
55914;BME280;58179;48.776;9.124;2023-05-03T11:41:12;98028.28;;;22.36;100.00
55914;BME280;58179;48.776;9.124;2023-05-03T11:43:40;98032.84;;;22.27;100.00
55914;BME280;58179;48.776;9.124;2023-05-03T11:46:08;98041.22;;;22.25;100.00
55914;BME280;58179;48.776;9.124;2023-05-03T11:48:35;98028.72;;;21.98;100.00
55914;BME280;58179;48.776;9.124;2023-05-03T11:51:06;98031.38;;;21.68;100.00
55914;BME280;58179;48.776;9.124;2023-05-03T11:53:36;98022.69;;;21.48;100.00
55914;BME280;58179;48.776;9.124;2023-05-03T11:56:06;98014.34;;;21.58;100.00
55914;BME280;58179;48.776;9.124;2023-05-03T11:58:33;98015.63;;;21.83;100.00
55914;BME280;58179;48.776;9.124;2023-05-03T12:00:59;98015.59;;;22.36;100.00
55914;BME280;58179;48.776;9.124;2023-05-03T12:03:28;98009.31;;;22.67;100.00
55914;BME280;58179;48.776;9.124;2023-05-03T12:05:57;97999.16;;;22.64;89.92
55914;BME280;58179;48.776;9.124;2023-05-03T12:08:28;98001.00;;;23.03;100.00
55914;BME280;58179;48.776;9.124;2023-05-03T12:10:56;98007.38;;;23.50;99.90
55914;BME280;58179;48.776;9.124;2023-05-03T12:13:30;98001.38;;;24.00;93.81
55914;BME280;58179;48.776;9.124;2023-05-03T12:15:58;98016.53;;;24.39;100.00
55914;BME280;58179;48.776;9.124;2023-05-03T12:18:45;98008.53;;;24.80;100.00
55914;BME280;58179;48.776;9.124;2023-05-03T12:21:11;98004.66;;;25.31;100.00
55914;BME280;58179;48.776;9.124;2023-05-03T12:23:39;98011.53;;;25.29;100.00
55914;BME280;58179;48.776;9.124;2023-05-03T12:26:06;98011.88;;;25.06;100.00
55914;BME280;58179;48.776;9.124;2023-05-03T12:28:33;98007.03;;;24.62;100.00
55914;BME280;58179;48.776;9.124;2023-05-03T12:30:59;98008.16;;;24.23;100.00
55914;BME280;58179;48.776;9.124;2023-05-03T12:33:25;98004.84;;;24.55;100.00
55914;BME280;58179;48.776;9.124;2023-05-03T12:35:54;98003.34;;;24.96;82.26
55914;BME280;58179;48.776;9.124;2023-05-03T12:38:20;97993.75;;;26.18;89.47
55914;BME280;58179;48.776;9.124;2023-05-03T12:40:46;97992.25;;;27.18;85.70
55914;BME280;58179;48.776;9.124;2023-05-03T12:43:12;97980.09;;;28.15;74.89
55914;BME280;58179;48.776;9.124;2023-05-03T12:45:38;97985.28;;;29.02;66.01
55914;BME280;58179;48.776;9.124;2023-05-03T12:48:05;97987.72;;;29.84;66.97
55914;BME280;58179;48.776;9.124;2023-05-03T12:50:31;97980.06;;;30.88;66.39
55914;BME280;58179;48.776;9.124;2023-05-03T12:52:58;97969.13;;;31.84;55.38
55914;BME280;58179;48.776;9.124;2023-05-03T12:55:24;97968.03;;;32.37;59.66
55914;BME280;58179;48.776;9.124;2023-05-03T12:57:50;97971.59;;;33.02;60.40